Time;durP1;ratioP1;P1;durP2;ratioP2;P2;SDS_P1;SDS_P2;PMS_P1;PMS_P2;Temp;Humidity;BMP_temperature;BMP_pressure;BME280_temperature;BME280_humidity;BME280_pressure;Samples;Min_cycle;Max_cycle;Signal;HPM_P1;HPM_P2
2022/06/27 00:00:18;;;;;;;2.00;1.90;;;23.30;54.50;;;;;;20527;6829;310015;31
2022/06/27 00:02:44;;;;;;;4.23;2.07;;;23.50;54.40;;;;;;20774;6830;116177;31
2022/06/27 00:05:09;;;;;;;2.00;1.90;;;23.50;54.20;;;;;;20750;6830;117449;31
2022/06/27 00:07:35;;;;;;;1.98;1.90;;;23.30;54.40;;;;;;20533;6832;310363;31
2022/06/27 00:10:01;;;;;;;4.12;2.40;;;23.60;55.10;;;;;;20514;6851;338749;31
2022/06/27 00:12:26;;;;;;;1.87;1.80;;;23.80;55.90;;;;;;20793;6830;117072;31
2022/06/27 00:14:52;;;;;;;2.20;2.00;;;23.70;55.50;;;;;;20567;6830;307281;31
2022/06/27 00:17:17;;;;;;;2.60;1.80;;;23.70;56.90;;;;;;20695;6851;117029;31
2022/06/27 00:19:43;;;;;;;4.60;2.45;;;23.40;56.70;;;;;;20562;6830;279448;31
2022/06/27 00:22:09;;;;;;;2.42;2.30;;;23.40;58.60;;;;;;20585;6830;336493;31
2022/06/27 00:24:35;;;;;;;3.35;2.35;;;23.60;58.80;;;;;;20579;6832;308396;31
2022/06/27 00:27:01;;;;;;;3.60;3.00;;;23.70;58.00;;;;;;20551;6832;278490;31
2022/06/27 00:29:26;;;;;;;3.95;2.65;;;23.80;57.70;;;;;;20540;6832;308097;31
2022/06/27 00:31:52;;;;;;;1.93;1.83;;;23.80;57.70;;;;;;20525;6832;282663;31
2022/06/27 00:34:18;;;;;;;2.22;1.58;;;23.90;57.00;;;;;;20764;6832;118435;31
2022/06/27 00:36:43;;;;;;;1.60;1.53;;;23.60;57.20;;;;;;20770;6832;120928;31
2022/06/27 00:39:09;;;;;;;1.97;1.73;;;23.10;57.90;;;;;;20764;6832;116737;31
2022/06/27 00:41:34;;;;;;;4.53;2.20;;;22.70;58.50;;;;;;20745;6832;117504;31
2022/06/27 00:44:00;;;;;;;2.43;1.77;;;22.50;59.20;;;;;;20780;6830;117408;31
2022/06/27 00:46:25;;;;;;;3.27;2.17;;;22.30;60.00;;;;;;20530;6830;310466;31
2022/06/27 00:48:51;;;;;;;4.23;2.20;;;22.40;62.10;;;;;;20743;6830;117115;31
2022/06/27 00:51:18;;;;;;;14.37;3.00;;;22.40;61.20;;;;;;20596;6830;310091;31
2022/06/27 00:53:43;;;;;;;2.23;2.13;;;22.40;63.00;;;;;;20781;6830;117126;31
2022/06/27 00:56:09;;;;;;;2.80;2.62;;;22.10;61.90;;;;;;20781;6830;117233;31
2022/06/27 00:58:36;;;;;;;2.67;2.23;;;21.60;62.80;;;;;;20763;6830;117460;31
2022/06/27 01:01:00;;;;;;;2.03;1.93;;;21.20;64.00;;;;;;20770;6830;117232;31
2022/06/27 01:03:25;;;;;;;1.40;1.30;;;20.90;65.20;;;;;;20732;6830;117458;31
2022/06/27 01:05:51;;;;;;;2.13;1.47;;;20.60;66.00;;;;;;20775;6830;117143;31
2022/06/27 01:08:16;;;;;;;2.45;1.40;;;20.30;66.90;;;;;;20768;6830;117241;31
2022/06/27 01:10:45;;;;;;;3.00;1.73;;;20.00;67.60;;;;;;20548;6829;286751;31
2022/06/27 01:13:53;;;;;;;2.50;1.30;;;20.20;70.80;;;;;;20772;6830;121335;31
2022/06/27 01:16:19;;;;;;;2.10;1.50;;;20.20;70.80;;;;;;20754;6830;117457;31
2022/06/27 01:18:44;;;;;;;4.27;1.50;;;20.00;72.10;;;;;;20737;6830;118869;31
2022/06/27 01:21:10;;;;;;;2.63;1.40;;;19.90;73.10;;;;;;20777;6830;119235;31
2022/06/27 01:23:35;;;;;;;2.30;1.40;;;19.70;73.10;;;;;;20728;6830;118588;31
2022/06/27 01:26:01;;;;;;;1.67;1.57;;;19.70;73.70;;;;;;20763;6830;117151;31
2022/06/27 01:28:26;;;;;;;1.37;1.30;;;19.60;74.00;;;;;;20558;6830;308281;31
2022/06/27 01:30:52;;;;;;;1.37;1.27;;;19.90;73.40;;;;;;20708;6852;117074;31
2022/06/27 01:33:17;;;;;;;1.77;1.30;;;20.00;73.00;;;;;;20560;6830;278153;31
2022/06/27 01:35:44;;;;;;;1.60;1.50;;;20.20;71.10;;;;;;20503;6832;307848;31
2022/06/27 01:38:11;;;;;;;1.80;1.50;;;20.60;69.60;;;;;;20552;6832;308563;31
2022/06/27 01:40:37;;;;;;;1.50;1.40;;;20.90;68.10;;;;;;20772;6832;119856;31
2022/06/27 01:43:02;;;;;;;1.27;1.13;;;20.80;68.10;;;;;;20709;6852;116871;31
2022/06/27 01:45:32;;;;;;;1.92;1.33;;;20.50;69.30;;;;;;20541;6830;281579;31
2022/06/27 01:47:56;;;;;;;1.07;1.00;;;20.70;67.50;;;;;;20777;6830;117573;31
2022/06/27 01:50:24;;;;;;;1.08;1.08;;;20.60;67.50;;;;;;20528;6832;278390;31
2022/06/27 01:52:47;;;;;;;1.27;1.10;;;20.80;67.80;;;;;;20753;6832;117046;31
2022/06/27 01:55:13;;;;;;;2.53;1.20;;;20.80;67.30;;;;;;20558;6830;277968;31
2022/06/27 01:57:39;;;;;;;1.70;1.20;;;20.90;65.70;;;;;;20542;6830;308205;31
2022/06/27 02:00:04;;;;;;;1.20;1.10;;;21.10;65.10;;;;;;20768;6830;118028;31
2022/06/27 02:02:31;;;;;;;1.90;1.20;;;21.00;66.00;;;;;;20559;6830;281252;31
2022/06/27 02:04:57;;;;;;;1.55;1.25;;;21.10;65.20;;;;;;20564;6830;308144;31
2022/06/27 02:07:22;;;;;;;1.20;1.10;;;21.30;63.80;;;;;;20742;6830;116841;31
2022/06/27 02:09:48;;;;;;;1.57;0.73;;;21.20;64.00;;;;;;20752;6830;117285;31
2022/06/27 02:12:19;;;;;;;1.83;1.17;;;20.90;64.90;;;;;;20503;6852;281999;31
2022/06/27 02:14:48;;;;;;;1.43;1.10;;;21.00;64.20;;;;;;20778;6830;117082;31
2022/06/27 02:17:14;;;;;;;1.00;1.00;;;20.90;64.60;;;;;;20763;6830;117206;31
2022/06/27 02:19:39;;;;;;;1.47;1.17;;;20.70;65.50;;;;;;20750;6832;120917;31
2022/06/27 02:22:05;;;;;;;1.20;1.10;;;20.50;67.10;;;;;;20668;6850;117171;31
2022/06/27 02:24:30;;;;;;;1.95;1.23;;;20.40;68.00;;;;;;20567;6830;278570;31
2022/06/27 02:26:56;;;;;;;1.77;1.10;;;20.70;67.50;;;;;;20775;6830;117410;31
2022/06/27 02:29:21;;;;;;;1.50;1.30;;;20.80;66.80;;;;;;20774;6832;117002;31
2022/06/27 02:31:47;;;;;;;1.52;1.37;;;20.70;67.50;;;;;;20757;6832;117387;31
2022/06/27 02:34:13;;;;;;;1.53;1.37;;;20.60;67.80;;;;;;20760;6832;117017;31
2022/06/27 02:36:41;;;;;;;1.40;1.30;;;20.60;68.40;;;;;;20513;6830;311265;31
2022/06/27 02:39:04;;;;;;;1.40;1.30;;;20.90;66.90;;;;;;20720;6830;117030;31
2022/06/27 02:41:29;;;;;;;1.70;1.60;;;21.00;66.30;;;;;;20544;6830;278454;31
2022/06/27 02:43:56;;;;;;;1.47;1.37;;;21.30;64.50;;;;;;20559;6830;307147;31
2022/06/27 02:46:23;;;;;;;1.67;1.43;;;21.60;63.20;;;;;;20557;6830;279290;31
2022/06/27 02:48:48;;;;;;;1.67;1.42;;;21.90;62.80;;;;;;20572;6830;277960;31
2022/06/27 02:51:14;;;;;;;1.58;1.33;;;22.10;62.00;;;;;;20777;6830;116937;31
2022/06/27 02:53:42;;;;;;;1.70;1.60;;;22.00;62.20;;;;;;20508;6830;309406;31
2022/06/27 02:56:08;;;;;;;1.80;1.70;;;22.10;61.30;;;;;;20720;6830;116968;31
2022/06/27 02:58:33;;;;;;;1.70;1.40;;;21.90;61.80;;;;;;20501;6852;299737;31
2022/06/27 03:00:59;;;;;;;1.70;1.60;;;21.90;62.30;;;;;;20539;6830;301223;31
2022/06/27 03:03:25;;;;;;;2.00;1.50;;;22.10;61.80;;;;;;20556;6830;308202;31
2022/06/27 03:05:53;;;;;;;1.93;1.60;;;22.30;60.90;;;;;;20389;6852;120428;31
2022/06/27 03:08:19;;;;;;;1.60;1.43;;;22.10;61.30;;;;;;20744;6830;116790;31
2022/06/27 03:10:44;;;;;;;1.33;1.10;;;21.70;62.30;;;;;;20747;6830;117941;31
2022/06/27 03:13:10;;;;;;;1.70;1.60;;;21.40;63.50;;;;;;20555;6832;307871;31
2022/06/27 03:15:38;;;;;;;1.90;1.50;;;21.60;63.30;;;;;;20523;6832;338673;31
2022/06/27 03:18:03;;;;;;;1.70;1.60;;;21.80;62.10;;;;;;20555;6832;310459;31
2022/06/27 03:20:30;;;;;;;1.48;1.37;;;22.00;61.40;;;;;;20775;6832;117262;31
2022/06/27 03:22:55;;;;;;;2.57;1.50;;;21.80;62.00;;;;;;20565;6832;279677;31
2022/06/27 03:25:21;;;;;;;1.60;1.40;;;21.80;62.20;;;;;;20751;6832;117234;31
2022/06/27 03:27:47;;;;;;;1.20;1.10;;;21.70;62.70;;;;;;20748;6830;123290;31
2022/06/27 03:30:12;;;;;;;2.17;1.58;;;21.40;63.50;;;;;;20542;6837;309016;31
2022/06/27 03:32:38;;;;;;;1.40;1.30;;;21.50;63.70;;;;;;20773;6830;118491;31
2022/06/27 03:35:03;;;;;;;1.75;1.60;;;21.50;63.80;;;;;;20572;6828;309612;31
2022/06/27 03:37:29;;;;;;;2.60;1.67;;;21.60;62.90;;;;;;20496;6851;278873;31
2022/06/27 03:39:56;;;;;;;2.05;1.77;;;21.80;63.00;;;;;;20600;6830;305903;31
2022/06/27 03:42:21;;;;;;;2.30;2.10;;;22.00;62.20;;;;;;20499;6830;336404;31
2022/06/27 03:44:47;;;;;;;1.83;1.67;;;22.10;61.40;;;;;;20805;6832;117026;31
2022/06/27 03:47:12;;;;;;;1.30;1.20;;;21.90;62.00;;;;;;20760;6832;116173;31
2022/06/27 03:52:24;;;;;;;1.63;1.50;;;21.70;62.00;;;;;;20569;6837;282038;31
2022/06/27 03:54:49;;;;;;;2.47;1.70;;;21.90;60.90;;;;;;20570;6830;280366;31
2022/06/27 03:57:15;;;;;;;2.10;1.90;;;22.10;60.70;;;;;;20509;6852;279352;31
2022/06/27 03:59:40;;;;;;;1.97;1.50;;;22.20;60.70;;;;;;20574;6830;307859;31
2022/06/27 04:02:09;;;;;;;1.63;1.53;;;22.30;60.00;;;;;;20579;6830;280717;31
2022/06/27 04:04:33;;;;;;;1.57;1.43;;;22.40;60.00;;;;;;20471;6852;310303;31
2022/06/27 04:07:01;;;;;;;1.37;1.20;;;22.40;59.90;;;;;;20568;6830;278991;31
2022/06/27 04:09:24;;;;;;;1.30;1.20;;;22.50;60.00;;;;;;20768;6830;120155;31
2022/06/27 04:11:50;;;;;;;2.08;1.20;;;22.20;61.30;;;;;;20498;6852;279988;31
2022/06/27 04:14:16;;;;;;;0.90;0.90;;;22.20;60.20;;;;;;20738;6830;122927;31
2022/06/27 04:16:41;;;;;;;1.98;1.15;;;22.00;60.80;;;;;;20733;6830;123828;31
2022/06/27 04:19:07;;;;;;;2.37;1.30;;;21.70;61.50;;;;;;20502;6832;306127;31
2022/06/27 04:21:32;;;;;;;1.20;1.13;;;21.80;61.70;;;;;;20487;6852;338944;31
2022/06/27 04:23:58;;;;;;;1.13;1.10;;;22.00;61.40;;;;;;20765;6830;122097;31
2022/06/27 04:26:24;;;;;;;1.80;0.80;;;21.90;61.70;;;;;;20758;6832;118052;31
2022/06/27 04:28:49;;;;;;;3.05;1.20;;;21.60;62.50;;;;;;20511;6832;307850;31
2022/06/27 04:31:15;;;;;;;3.67;1.50;;;21.70;61.30;;;;;;20812;6832;116699;31
2022/06/27 04:33:40;;;;;;;2.13;1.30;;;21.70;61.80;;;;;;20728;6852;119479;31
2022/06/27 04:36:07;;;;;;;2.17;1.30;;;21.40;62.50;;;;;;20616;6830;308779;31
2022/06/27 04:38:31;;;;;;;1.67;1.30;;;21.60;62.50;;;;;;20604;6832;314885;31
2022/06/27 04:40:57;;;;;;;1.23;0.90;;;21.80;62.00;;;;;;20824;6832;116009;31
2022/06/27 04:43:22;;;;;;;2.10;1.50;;;21.80;62.10;;;;;;20605;6832;306979;31
2022/06/27 04:45:49;;;;;;;1.67;1.58;;;21.90;61.60;;;;;;20781;6830;117220;31
2022/06/27 04:48:14;;;;;;;2.10;1.90;;;21.80;61.90;;;;;;20602;6832;310955;31
2022/06/27 04:50:40;;;;;;;3.63;1.70;;;21.90;61.90;;;;;;20825;6832;119977;31
2022/06/27 04:53:05;;;;;;;1.50;1.40;;;21.80;62.40;;;;;;20820;6830;116617;31
2022/06/27 04:55:30;;;;;;;2.47;1.90;;;21.70;63.20;;;;;;20596;6830;278765;31
2022/06/27 04:57:57;;;;;;;2.80;1.70;;;21.80;62.90;;;;;;20627;6830;335140;31
2022/06/27 05:00:23;;;;;;;1.80;1.70;;;22.10;62.30;;;;;;20585;6830;321595;31
2022/06/27 05:02:49;;;;;;;3.07;1.50;;;22.40;61.60;;;;;;20544;6830;319509;31
2022/06/27 05:05:14;;;;;;;1.80;1.60;;;22.50;60.70;;;;;;20575;6830;306605;31
2022/06/27 05:07:39;;;;;;;2.50;1.60;;;22.70;60.20;;;;;;20551;6830;292108;31
2022/06/27 05:10:05;;;;;;;3.58;1.40;;;22.80;59.60;;;;;;20565;6830;279192;31
2022/06/27 05:12:31;;;;;;;1.17;1.10;;;22.90;59.60;;;;;;20758;6830;116850;31
2022/06/27 05:14:56;;;;;;;1.40;1.30;;;22.80;60.00;;;;;;20562;6830;340440;31
2022/06/27 05:17:24;;;;;;;3.10;1.27;;;23.00;59.70;;;;;;20593;6830;307887;31
2022/06/27 05:19:47;;;;;;;2.33;1.35;;;23.20;58.60;;;;;;20532;6830;310503;31
2022/06/27 05:22:13;;;;;;;2.40;1.30;;;23.50;58.50;;;;;;20769;6830;121565;31
2022/06/27 05:24:39;;;;;;;1.93;1.33;;;23.50;59.00;;;;;;20753;6830;117726;31
2022/06/27 05:27:04;;;;;;;1.87;1.23;;;23.30;59.60;;;;;;20564;6830;307646;31
2022/06/27 05:29:30;;;;;;;1.70;1.10;;;23.40;59.40;;;;;;20736;6830;119917;31
2022/06/27 05:31:55;;;;;;;2.42;1.15;;;23.30;59.30;;;;;;20768;6830;118786;31
2022/06/27 05:34:21;;;;;;;1.60;1.37;;;23.20;60.10;;;;;;20777;6830;117423;31
2022/06/27 05:36:47;;;;;;;3.53;1.40;;;23.00;60.70;;;;;;20786;6830;117121;31
2022/06/27 05:39:12;;;;;;;1.67;1.40;;;22.90;61.00;;;;;;20592;6830;309821;31
2022/06/27 05:41:37;;;;;;;2.73;1.10;;;23.10;60.00;;;;;;20779;6830;118138;31
2022/06/27 05:44:04;;;;;;;1.47;1.20;;;23.20;60.00;;;;;;20536;6830;279248;31
2022/06/27 05:46:29;;;;;;;2.43;1.10;;;23.40;59.40;;;;;;20557;6830;292978;31
2022/06/27 05:48:55;;;;;;;1.80;1.20;;;23.70;58.80;;;;;;20567;6830;325780;31
2022/06/27 05:51:20;;;;;;;1.92;1.35;;;24.00;58.20;;;;;;20557;6830;312284;31
2022/06/27 05:53:45;;;;;;;1.77;0.90;;;24.20;57.70;;;;;;20544;6830;340469;31
2022/06/27 05:56:11;;;;;;;2.57;0.73;;;24.30;57.10;;;;;;20774;6829;118153;31
2022/06/27 05:58:38;;;;;;;0.88;0.80;;;24.30;57.80;;;;;;20556;6829;279648;31
2022/06/27 06:01:02;;;;;;;1.50;0.90;;;24.30;56.80;;;;;;20543;6830;311248;31
2022/06/27 06:03:28;;;;;;;0.60;0.60;;;24.60;56.10;;;;;;20742;6830;120130;31
2022/06/27 06:05:54;;;;;;;1.70;1.30;;;24.60;56.60;;;;;;20562;6830;308018;31
2022/06/27 06:08:20;;;;;;;2.10;1.17;;;24.60;55.60;;;;;;20778;6830;117013;31
2022/06/27 06:10:44;;;;;;;2.23;1.33;;;24.40;56.40;;;;;;20772;6830;121432;31
2022/06/27 06:13:10;;;;;;;2.37;1.07;;;24.10;58.00;;;;;;20780;6830;119607;31
2022/06/27 06:15:38;;;;;;;1.55;1.15;;;23.80;58.10;;;;;;20755;6830;119074;31
2022/06/27 06:18:01;;;;;;;2.47;1.30;;;23.70;58.80;;;;;;20547;6830;281005;31
2022/06/27 06:20:27;;;;;;;1.20;1.10;;;23.90;58.10;;;;;;20566;6830;310274;31
2022/06/27 06:22:52;;;;;;;1.40;1.17;;;24.40;57.20;;;;;;20773;6830;117351;31
2022/06/27 06:25:18;;;;;;;1.57;1.20;;;24.60;57.30;;;;;;20564;6830;308070;31
2022/06/27 06:27:44;;;;;;;1.20;1.00;;;24.80;56.10;;;;;;20541;6830;278838;31
2022/06/27 06:30:09;;;;;;;1.73;1.00;;;25.10;55.40;;;;;;20559;6830;307613;31
2022/06/27 06:32:36;;;;;;;0.80;0.80;;;25.60;54.60;;;;;;20700;6852;117811;31
2022/06/27 06:35:02;;;;;;;0.70;0.70;;;25.80;55.40;;;;;;20779;6830;117377;31
2022/06/27 06:37:27;;;;;;;1.37;1.08;;;26.00;55.40;;;;;;20761;6830;118708;31
2022/06/27 06:39:52;;;;;;;0.80;0.80;;;26.00;55.60;;;;;;20557;6832;314816;31
2022/06/27 06:42:18;;;;;;;1.03;0.90;;;26.30;52.40;;;;;;20780;6832;117762;31
2022/06/27 06:44:43;;;;;;;1.30;0.95;;;26.30;53.00;;;;;;20564;6832;291918;31
2022/06/27 06:47:09;;;;;;;1.10;1.00;;;26.40;51.90;;;;;;20494;6852;314666;31
2022/06/27 06:49:36;;;;;;;1.00;1.00;;;26.70;51.40;;;;;;20557;6830;307399;31
2022/06/27 06:52:01;;;;;;;0.90;0.90;;;27.10;50.70;;;;;;20568;6830;316188;31
2022/06/27 06:54:31;;;;;;;2.87;1.10;;;27.60;50.20;;;;;;20777;6832;117013;31
2022/06/27 06:56:52;;;;;;;1.23;0.88;;;27.90;51.50;;;;;;20561;6832;277991;31
2022/06/27 06:59:19;;;;;;;1.20;1.00;;;28.40;49.10;;;;;;20609;6832;305799;31
2022/06/27 07:01:46;;;;;;;1.10;0.93;;;29.00;47.20;;;;;;20778;6832;117361;31
2022/06/27 07:04:09;;;;;;;0.70;0.70;;;29.30;48.30;;;;;;20704;6852;117248;31
2022/06/27 07:06:35;;;;;;;0.93;0.87;;;29.20;48.70;;;;;;20771;6830;116910;31
2022/06/27 07:09:00;;;;;;;1.15;0.90;;;29.30;49.40;;;;;;20559;6828;337611;31
2022/06/27 07:11:27;;;;;;;0.90;0.90;;;29.90;45.90;;;;;;20750;6832;117557;31
2022/06/27 07:13:51;;;;;;;1.07;0.70;;;30.30;47.00;;;;;;20552;6832;307989;31
2022/06/27 07:16:18;;;;;;;1.05;0.90;;;30.90;44.00;;;;;;20492;6851;308233;31
2022/06/27 07:18:43;;;;;;;1.20;0.73;;;31.50;42.90;;;;;;20772;6830;117347;31
2022/06/27 07:21:08;;;;;;;0.75;0.70;;;31.60;43.80;;;;;;20565;6830;278868;31
2022/06/27 07:23:34;;;;;;;0.70;0.70;;;31.50;41.10;;;;;;20753;6832;121043;31
2022/06/27 07:25:59;;;;;;;1.87;0.77;;;31.10;42.80;;;;;;20773;6832;117264;31
2022/06/27 07:28:28;;;;;;;1.90;0.87;;;30.50;44.30;;;;;;20769;6832;117286;31
2022/06/27 07:30:51;;;;;;;0.60;0.60;;;30.10;45.50;;;;;;20771;6832;117021;31
2022/06/27 07:33:16;;;;;;;2.80;0.90;;;29.70;46.10;;;;;;20560;6832;304633;31
2022/06/27 07:35:41;;;;;;;1.23;1.10;;;29.70;44.80;;;;;;20721;6843;118905;31
2022/06/27 07:38:07;;;;;;;1.17;0.80;;;29.80;45.80;;;;;;20547;6837;308953;31
2022/06/27 07:40:35;;;;;;;1.00;0.93;;;29.90;44.80;;;;;;20778;6830;117017;31
2022/06/27 07:42:59;;;;;;;0.90;0.90;;;29.90;45.70;;;;;;20553;6832;307762;31
2022/06/27 07:45:27;;;;;;;1.50;0.90;;;29.90;44.60;;;;;;20506;6852;278813;31
2022/06/27 07:47:52;;;;;;;0.90;0.90;;;30.10;44.20;;;;;;20776;6830;117637;31
2022/06/27 07:50:37;;;;;;;1.98;1.27;;;30.10;45.10;;;;;;20558;6830;310899;31
2022/06/27 07:53:13;;;;;;;0.70;0.70;;;30.10;44.30;;;;;;20775;6832;117262;31
2022/06/27 07:55:39;;;;;;;2.00;0.93;;;29.90;45.40;;;;;;20688;6852;117692;31
2022/06/27 07:58:05;;;;;;;2.10;0.87;;;29.70;46.00;;;;;;20555;6830;309037;31
2022/06/27 08:00:29;;;;;;;0.70;0.70;;;29.70;44.20;;;;;;20757;6832;116952;31
2022/06/27 08:02:55;;;;;;;0.80;0.80;;;29.60;45.40;;;;;;20564;6832;278427;31
2022/06/27 08:05:21;;;;;;;0.80;0.70;;;29.80;44.80;;;;;;20556;6832;279919;31
2022/06/27 08:07:46;;;;;;;1.70;1.10;;;30.00;45.00;;;;;;20540;6832;306597;31
2022/06/27 08:10:12;;;;;;;1.60;0.70;;;30.20;43.50;;;;;;20767;6832;120519;31
2022/06/27 08:12:37;;;;;;;1.90;0.80;;;30.00;44.60;;;;;;20560;6832;310883;31
2022/06/27 08:15:03;;;;;;;0.80;0.80;;;30.20;44.50;;;;;;20505;6852;278919;31
2022/06/27 08:17:29;;;;;;;0.97;0.90;;;30.50;43.80;;;;;;20763;6830;119296;31
2022/06/27 08:19:54;;;;;;;1.50;0.90;;;30.60;44.70;;;;;;20564;6829;307390;31
2022/06/27 08:22:24;;;;;;;1.10;0.80;;;30.80;42.90;;;;;;20572;6831;278033;31
2022/06/27 08:24:46;;;;;;;1.00;0.90;;;31.20;42.40;;;;;;20548;6832;308925;31
2022/06/27 08:27:11;;;;;;;1.07;0.97;;;31.50;42.20;;;;;;20562;6832;311913;31
2022/06/27 08:29:38;;;;;;;0.90;0.90;;;31.80;42.10;;;;;;20751;6832;123669;31
2022/06/27 08:32:02;;;;;;;1.27;1.05;;;31.70;43.20;;;;;;20566;6832;281012;31
2022/06/27 08:34:27;;;;;;;3.13;1.03;;;31.60;41.60;;;;;;20713;6851;117325;31
2022/06/27 08:36:54;;;;;;;1.77;0.90;;;31.40;43.00;;;;;;20795;6830;116079;31
2022/06/27 08:39:19;;;;;;;2.75;1.12;;;31.20;44.00;;;;;;20784;6830;117393;31
2022/06/27 08:41:45;;;;;;;0.90;0.90;;;30.90;44.50;;;;;;20566;6832;401282;31
2022/06/27 08:44:10;;;;;;;1.15;0.80;;;31.10;43.10;;;;;;20565;6832;277506;31
2022/06/27 08:46:35;;;;;;;1.23;0.88;;;31.30;42.00;;;;;;20557;6832;308204;31
2022/06/27 08:49:02;;;;;;;2.40;0.80;;;31.50;42.10;;;;;;20780;6832;118566;31
2022/06/27 08:51:27;;;;;;;1.40;0.80;;;31.40;43.00;;;;;;20556;6830;279503;31
2022/06/27 08:53:52;;;;;;;1.05;0.90;;;31.40;41.30;;;;;;20563;6830;309013;31
2022/06/27 08:56:19;;;;;;;0.95;0.70;;;31.50;41.10;;;;;;20779;6830;117604;31
2022/06/27 08:58:46;;;;;;;0.88;0.82;;;31.10;42.20;;;;;;20566;6830;307209;31
2022/06/27 09:01:09;;;;;;;1.40;0.85;;;30.80;41.70;;;;;;20773;6830;117186;31
2022/06/27 09:03:36;;;;;;;0.70;0.70;;;30.50;42.80;;;;;;20552;6830;307233;31
2022/06/27 09:06:04;;;;;;;0.97;0.97;;;30.30;42.70;;;;;;20780;6830;117157;31
2022/06/27 09:08:31;;;;;;;1.20;0.80;;;30.00;43.90;;;;;;20554;6830;308011;31
2022/06/27 09:10:59;;;;;;;1.03;1.03;;;29.90;43.50;;;;;;20773;6830;117070;31
2022/06/27 09:13:25;;;;;;;1.20;1.00;;;29.60;44.40;;;;;;20563;6830;305547;31
2022/06/27 09:15:53;;;;;;;1.20;1.20;;;29.50;44.30;;;;;;20759;6830;117926;31
2022/06/27 09:18:20;;;;;;;1.62;0.95;;;29.20;44.90;;;;;;20565;6830;337795;31
2022/06/27 09:20:59;;;;;;;1.73;1.40;;;29.00;44.90;;;;;;20765;6830;117468;31
2022/06/27 09:23:28;;;;;;;1.60;1.00;;;28.70;45.70;;;;;;20779;6830;117392;31
2022/06/27 09:25:56;;;;;;;1.10;1.00;;;28.10;46.70;;;;;;20569;6830;306010;31
2022/06/27 09:28:23;;;;;;;1.20;1.10;;;28.00;46.80;;;;;;20521;6830;282075;31
2022/06/27 09:30:48;;;;;;;1.70;0.90;;;28.20;46.90;;;;;;20781;6830;117195;31
2022/06/27 09:33:15;;;;;;;0.90;0.90;;;28.00;47.40;;;;;;20788;6829;118470;31
2022/06/27 09:35:39;;;;;;;1.62;1.10;;;27.80;48.20;;;;;;20756;6830;118075;31
2022/06/27 09:38:04;;;;;;;1.57;1.30;;;27.60;48.60;;;;;;20779;6830;117644;31
2022/06/27 09:40:30;;;;;;;1.42;1.20;;;27.30;48.90;;;;;;20565;6830;308826;31
2022/06/27 09:42:55;;;;;;;1.58;1.48;;;27.40;48.20;;;;;;20560;6830;278064;31
2022/06/27 09:45:24;;;;;;;1.50;1.40;;;27.70;48.30;;;;;;20769;6830;118532;31
2022/06/27 09:47:49;;;;;;;1.37;1.10;;;27.90;49.10;;;;;;20771;6830;121569;31
2022/06/27 09:53:26;;;;;;;1.10;1.10;;;28.10;49.50;;;;;;21033;6589;88431;-85
2022/06/27 09:55:48;;;;;;;1.83;1.23;;;28.20;49.10;;;;;;20768;6826;183892;-86
2022/06/27 09:58:13;;;;;;;1.53;1.20;;;28.20;49.00;;;;;;20616;6821;280326;-87
2022/06/27 10:00:41;;;;;;;2.20;1.30;;;29.20;46.60;;;;;;20584;6821;307238;-87
2022/06/27 10:03:06;;;;;;;1.57;1.47;;;29.10;46.50;;;;;;20605;6892;118616;-87
2022/06/27 10:05:33;;;;;;;1.15;1.05;;;29.30;46.60;;;;;;20387;6892;312956;-87
2022/06/27 10:07:57;;;;;;;2.03;1.30;;;29.50;45.30;;;;;;20621;6887;117892;-86
2022/06/27 10:10:22;;;;;;;2.45;1.55;;;29.50;45.80;;;;;;20398;6887;313806;-84
2022/06/27 10:12:55;;;;;;;1.77;1.30;;;29.60;43.80;;;;;;20408;6887;310103;-86
2022/06/27 10:15:21;;;;;;;1.80;1.20;;;29.70;43.90;;;;;;20619;6887;117480;-86
2022/06/27 10:17:46;;;;;;;1.30;1.20;;;29.50;45.00;;;;;;20391;6887;339410;-86
2022/06/27 10:20:26;;;;;;;1.40;1.30;;;29.70;44.10;;;;;;20415;6887;280535;-86
2022/06/27 10:23:11;;;;;;;2.13;1.40;;;29.70;44.10;;;;;;20619;6887;124893;-89
2022/06/27 10:25:36;;;;;;;1.67;1.57;;;29.40;44.80;;;;;;20596;6887;119368;-87
2022/06/27 10:28:08;;;;;;;1.57;1.40;;;29.00;45.50;;;;;;20599;6887;121138;-87
2022/06/27 10:30:41;;;;;;;1.42;1.35;;;28.60;46.20;;;;;;20385;6887;310367;-87
2022/06/27 10:33:22;;;;;;;2.90;1.20;;;28.60;45.50;;;;;;20376;6887;312170;-87
2022/06/27 10:35:57;;;;;;;2.10;1.30;;;28.70;46.10;;;;;;20342;6887;282508;-87
2022/06/27 10:38:19;;;;;;;1.80;1.23;;;28.70;46.10;;;;;;20380;6887;339027;-87
2022/06/27 10:40:45;;;;;;;1.13;1.03;;;28.80;45.80;;;;;;20530;6887;117542;-86
2022/06/27 10:43:10;;;;;;;1.25;1.10;;;28.50;46.60;;;;;;20409;6887;339003;-86
2022/06/27 10:45:36;;;;;;;0.80;0.67;;;28.30;46.10;;;;;;20426;6887;118828;-87
2022/06/27 10:48:02;;;;;;;1.13;1.00;;;27.90;46.90;;;;;;20400;6887;284127;-86
2022/06/27 10:50:28;;;;;;;0.80;0.80;;;27.90;46.90;;;;;;20408;6887;308284;-87
2022/06/27 10:53:16;;;;;;;2.30;1.02;;;27.90;46.60;;;;;;20352;6887;341674;-87
2022/06/27 10:55:42;;;;;;;1.83;1.10;;;27.90;46.80;;;;;;20400;6887;280214;-87
2022/06/27 10:58:07;;;;;;;1.17;0.80;;;27.90;46.90;;;;;;20639;6884;118145;-88
2022/06/27 11:00:42;;;;;;;1.48;0.90;;;27.50;47.60;;;;;;20369;6884;280252;-87
2022/06/27 11:03:08;;;;;;;1.60;1.00;;;27.40;47.40;;;;;;20419;6882;280362;-87
2022/06/27 11:05:50;;;;;;;1.65;0.90;;;27.40;47.40;;;;;;20214;6883;308981;-87
2022/06/27 11:08:15;;;;;;;3.20;1.07;;;27.50;47.60;;;;;;20614;6883;123977;-88
2022/06/27 11:10:41;;;;;;;0.90;0.90;;;27.20;48.30;;;;;;20422;6883;309755;-88
2022/06/27 11:13:06;;;;;;;1.27;1.20;;;27.10;48.30;;;;;;20623;6883;118007;-88
2022/06/27 11:15:33;;;;;;;1.35;1.08;;;26.90;48.90;;;;;;20395;6883;280197;-88
2022/06/27 11:17:58;;;;;;;1.10;1.10;;;26.90;48.90;;;;;;20635;6883;117634;-88
2022/06/27 11:20:25;;;;;;;2.80;1.00;;;26.70;49.30;;;;;;20590;6883;117963;-88
2022/06/27 11:22:56;;;;;;;1.77;1.00;;;26.40;49.90;;;;;;20422;6884;280691;-87
2022/06/27 11:25:22;;;;;;;1.93;1.10;;;26.40;50.80;;;;;;20623;6884;117702;-89
2022/06/27 11:27:51;;;;;;;1.50;1.30;;;26.30;50.00;;;;;;20374;6884;342338;-88
2022/06/27 11:33:16;;;;;;;1.58;1.00;;;26.70;49.00;;;;;;20431;6880;280124;-88
2022/06/27 11:35:42;;;;;;;1.40;1.03;;;26.70;49.10;;;;;;20619;6880;118268;-87
2022/06/27 11:38:07;;;;;;;1.63;1.40;;;26.70;49.10;;;;;;20393;6894;279190;-87
2022/06/27 11:40:33;;;;;;;1.23;1.00;;;26.70;49.10;;;;;;20383;6895;280458;-89
2022/06/27 11:42:59;;;;;;;1.12;1.08;;;26.80;48.50;;;;;;20603;6895;120543;-90
2022/06/27 11:45:24;;;;;;;1.23;1.20;;;26.60;49.20;;;;;;20601;6895;118483;-88
2022/06/27 11:47:50;;;;;;;1.17;1.17;;;26.30;50.00;;;;;;20349;6895;309760;-87
2022/06/27 11:50:15;;;;;;;2.20;1.23;;;26.50;49.90;;;;;;20384;6895;310170;-88
2022/06/27 11:52:49;;;;;;;2.83;1.00;;;26.70;49.80;;;;;;20588;6895;120509;-89
2022/06/27 11:55:17;;;;;;;1.20;1.10;;;26.60;49.70;;;;;;20564;6895;118063;-88
2022/06/27 11:57:50;;;;;;;1.10;1.10;;;26.20;50.80;;;;;;20553;6895;118107;-88
2022/06/27 12:00:16;;;;;;;1.27;1.17;;;26.20;50.80;;;;;;20585;6895;121480;-87
2022/06/27 12:02:41;;;;;;;1.20;1.20;;;26.00;51.10;;;;;;20369;6895;342337;-88
2022/06/27 12:05:13;;;;;;;1.62;1.52;;;26.20;50.80;;;;;;20594;6895;117581;-89
2022/06/27 12:07:52;;;;;;;1.87;1.33;;;26.20;51.60;;;;;;20554;6895;118722;-89
2022/06/27 12:10:34;;;;;;;1.67;1.40;;;26.10;51.20;;;;;;20374;6895;309889;-87
2022/06/27 12:13:00;;;;;;;1.70;1.53;;;26.30;50.40;;;;;;20377;6895;280171;-87
2022/06/27 12:15:26;;;;;;;1.77;1.33;;;26.60;49.60;;;;;;20581;6892;120019;-87
2022/06/27 12:17:51;;;;;;;1.60;1.50;;;26.60;50.20;;;;;;20385;6894;283513;-88
2022/06/27 12:20:16;;;;;;;1.60;1.50;;;26.70;49.30;;;;;;20366;6894;281865;-87
2022/06/27 12:22:42;;;;;;;1.70;1.60;;;26.90;49.10;;;;;;20380;6894;339499;-85
2022/06/27 12:25:07;;;;;;;1.93;1.63;;;27.00;48.80;;;;;;20593;6894;116606;-87
2022/06/27 12:27:33;;;;;;;1.63;1.53;;;26.90;49.30;;;;;;20576;6894;117968;-88
2022/06/27 12:29:59;;;;;;;1.98;1.83;;;26.60;50.00;;;;;;20380;6894;282514;-87
2022/06/27 12:32:26;;;;;;;1.87;1.77;;;26.90;49.30;;;;;;20324;6894;339849;-90
2022/06/27 12:34:51;;;;;;;1.80;1.70;;;26.90;49.20;;;;;;20522;6894;123547;-90
2022/06/27 12:37:17;;;;;;;1.80;1.70;;;26.90;49.70;;;;;;20517;6894;118071;-87
2022/06/27 12:39:42;;;;;;;1.70;1.70;;;26.60;50.10;;;;;;20559;6894;117631;-88
2022/06/27 12:42:08;;;;;;;1.97;1.80;;;26.40;50.60;;;;;;20337;6894;312223;-89
2022/06/27 12:44:33;;;;;;;1.97;1.87;;;26.50;49.70;;;;;;20575;6894;117514;-87
2022/06/27 12:46:59;;;;;;;2.00;1.90;;;26.40;50.00;;;;;;20380;6894;310635;-88
2022/06/27 12:49:25;;;;;;;2.90;2.05;;;26.50;49.50;;;;;;20379;6894;303989;-90